< < Back
Terminal Aerodrome Forecast


Current Version              Previous Versions:   1  2  3  4  5  6  7  8  9  

Terminal Aerodrome Forecast

658
FTUS44 KBMX 190500
TAFMGM
TAF
KMGM 190529Z 1906/2006 33002KT P6SM SCT035 SCT100 BKN250
     FM190900 01004KT P6SM BKN030
     FM191600 04005KT P6SM VCSH BKN035 OVC050
     FM192000 02007KT 4SM RA BKN035 OVC050=

Latest METAR

638
SAUS80 KWBC 192300
MTRMGM
METAR KMGM 192253Z 00000KT 10SM -RA OVC090 10/04 A3016 RMK AO2 RAB14
SLP212 P0000 T01000044


USA.gov is the U.S. government's official web portal to all federal, state and local government web resources and services.